Portada
METAR-TAF:

METAR-TAF

Aeroports :

Tarawa, Kiribati

latitud: 01-21N, longitud: 172-55E, altitud: 2 m

Observació

L'informe es va fer fa 25 minuts, a les 11:00 UTC
Vent 7 kt del Est/Nord-Est
Temperatura 29°C
Humitat 79%
Pressió 1010 hPa
Visibilitat 10 km o més
Escasses núvols a una alçada de 2000 ft
Cel ennuvolat a una alçada de 30000 ft

METAR: NGTA 291100Z 07007KT 9999 FEW020 BKN300 29/25 Q1010

Hora: 01:25 (11:25 UTC)

Pronòstic

L'informe es va fer fa 6 hores i 23 minuts, a les 05:02 UTC
Pronòstic vàlid del 29 a les 06 UTC al 30 a les 06 UTC
Vent 6 kt del Nord-Est
Visibilitat 10 km o més
Escasses núvols a una alçada de 2000 ft
Cel ennuvolat a una alçada de 10000 ft

TAF: NGTA 290502Z 2906/3006 05006KT 9999 FEW020 BKN100

Observacions i pronòstics meteorològics de més de 4000 aeroports (METAR i TAF).

Les estacions disponibles són els punts grocs i vermells al mapa.

Posi el ratolí al punt desitjat per veure el nom de l'estació.

Feu clic per veure les observacions i els pronòstics meteorològics.

Per canviar el mapa: feu clic els botons verds amb una creu de color negre per apropar; al botó verd amb un guió per allunyar la imatge; o en les fletxes verdes per a mapes adjacents.


METAR-TAF: